Time;durP1;ratioP1;P1;durP2;ratioP2;P2;SDS_P1;SDS_P2;PMS_P1;PMS_P2;Temp;Humidity;BMP_temperature;BMP_pressure;BME280_temperature;BME280_humidity;BME280_pressure;Samples;Min_cycle;Max_cycle;Signal;HPM_P1;HPM_P2
2023/05/06 00:00:44;;;;;;;70.75;29.55;;;;;;;12.66;100.00;101619.16;5050294;28;20112;-46
2023/05/06 00:03:10;;;;;;;76.25;29.63;;;;;;;12.66;100.00;101616.44;5049580;28;20106;-48
2023/05/06 00:05:35;;;;;;;66.00;28.35;;;;;;;12.68;100.00;101606.31;5050275;28;20081;-47
2023/05/06 00:08:01;;;;;;;63.13;28.08;;;;;;;12.73;100.00;101612.03;5050374;28;20057;-45
2023/05/06 00:10:26;;;;;;;66.25;29.92;;;;;;;12.71;100.00;101616.75;5050459;28;20433;-44
2023/05/06 00:12:51;;;;;;;71.63;29.02;;;;;;;12.71;100.00;101616.75;5050469;28;20091;-46
2023/05/06 00:15:17;;;;;;;76.30;29.33;;;;;;;12.72;100.00;101613.91;5050300;28;20028;-45
2023/05/06 00:17:44;;;;;;;68.60;29.70;;;;;;;12.74;100.00;101611.00;5050372;28;20328;-45
2023/05/06 00:20:09;;;;;;;72.80;30.33;;;;;;;12.84;100.00;101610.78;5050308;28;20021;-45
2023/05/06 00:22:35;;;;;;;73.70;30.45;;;;;;;12.84;100.00;101599.97;5049556;28;20032;-47
2023/05/06 00:25:00;;;;;;;75.63;33.22;;;;;;;12.81;100.00;101595.78;5051294;28;20021;-49
2023/05/06 00:27:26;;;;;;;70.05;30.58;;;;;;;12.80;100.00;101593.25;5049164;28;20076;-47
2023/05/06 00:29:51;;;;;;;69.82;29.88;;;;;;;12.74;100.00;101592.97;5051208;28;20108;-45
2023/05/06 00:32:16;;;;;;;65.93;29.73;;;;;;;12.66;100.00;101587.56;5048517;28;20395;-50
2023/05/06 00:34:42;;;;;;;74.85;31.05;;;;;;;12.66;100.00;101576.78;5050187;28;20156;-45
2023/05/06 00:37:08;;;;;;;69.72;31.00;;;;;;;12.60;100.00;101590.16;5050096;28;20021;-46
2023/05/06 00:39:34;;;;;;;73.68;31.83;;;;;;;12.53;100.00;101581.91;5053183;28;20032;-46
2023/05/06 00:42:03;;;;;;;87.60;32.65;;;;;;;12.49;100.00;101596.81;5053772;28;20025;-47
2023/05/06 00:44:30;;;;;;;86.03;34.03;;;;;;;12.46;100.00;101583.66;5036218;28;20025;-47
2023/05/06 00:46:57;;;;;;;76.20;34.83;;;;;;;12.44;100.00;101582.97;5053241;28;20020;-46
2023/05/06 00:49:23;;;;;;;86.93;33.22;;;;;;;12.40;100.00;101587.03;5053695;28;20013;-48
2023/05/06 00:51:49;;;;;;;84.43;33.55;;;;;;;12.36;100.00;101583.88;5053440;28;20033;-48
2023/05/06 00:54:15;;;;;;;90.50;34.47;;;;;;;12.34;100.00;101574.25;5052296;28;20078;-45
2023/05/06 00:56:41;;;;;;;79.00;34.28;;;;;;;12.32;100.00;101578.97;5035069;28;20045;-45
2023/05/06 00:59:06;;;;;;;77.20;31.33;;;;;;;12.21;100.00;101569.41;5053837;28;20061;-44
2023/05/06 01:01:34;;;;;;;68.65;30.08;;;;;;;12.13;100.00;101559.50;5036084;28;20458;-44
2023/05/06 01:04:00;;;;;;;78.45;32.47;;;;;;;12.08;100.00;101568.13;5052203;28;20025;-44
2023/05/06 01:06:44;;;;;;;79.60;32.80;;;;;;;12.03;100.00;101575.03;5053085;28;20035;-45
2023/05/06 01:09:36;;;;;;;84.43;34.15;;;;;;;11.99;100.00;101579.13;5037236;28;20029;-46
2023/05/06 01:12:13;;;;;;;87.75;34.22;;;;;;;11.95;100.00;101580.47;5052923;28;20033;-47
2023/05/06 01:14:42;;;;;;;80.38;31.67;;;;;;;11.91;100.00;101576.44;5052861;28;20033;-46
2023/05/06 01:17:10;;;;;;;84.93;32.25;;;;;;;11.90;100.00;101583.69;5053037;28;20449;-48
2023/05/06 01:19:40;;;;;;;82.53;32.75;;;;;;;11.87;100.00;101581.31;5051852;28;20087;-44
2023/05/06 01:22:07;;;;;;;84.25;33.58;;;;;;;11.84;100.00;101581.63;5053195;28;20021;-47
2023/05/06 01:24:40;;;;;;;80.05;32.83;;;;;;;11.82;100.00;101578.25;5051542;28;20033;-46
2023/05/06 01:27:06;;;;;;;76.05;32.45;;;;;;;11.79;100.00;101581.31;5051325;28;20465;-44
2023/05/06 01:29:33;;;;;;;75.20;32.05;;;;;;;11.76;100.00;101589.75;5051439;28;20035;-46
2023/05/06 01:32:22;;;;;;;92.05;35.65;;;;;;;11.75;100.00;101585.38;5051279;28;20029;-45
2023/05/06 01:34:59;;;;;;;82.20;34.08;;;;;;;11.71;100.00;101581.31;5051076;28;20041;-45
2023/05/06 01:37:33;;;;;;;80.85;32.53;;;;;;;11.74;100.00;101586.38;5053309;28;20136;-44
2023/05/06 01:39:59;;;;;;;86.75;34.92;;;;;;;11.72;100.00;101588.44;5051372;28;20028;-46
2023/05/06 01:42:26;;;;;;;79.95;33.35;;;;;;;11.70;100.00;101596.66;5051282;28;20021;-44
2023/05/06 01:44:53;;;;;;;86.68;36.65;;;;;;;11.69;100.00;101596.81;5051146;28;20025;-48
2023/05/06 01:47:20;;;;;;;87.20;35.10;;;;;;;11.65;100.00;101605.25;5052210;28;20115;-46
2023/05/06 01:49:46;;;;;;;81.70;34.05;;;;;;;11.61;100.00;101603.94;5049671;28;20029;-49
2023/05/06 01:52:14;;;;;;;83.55;33.85;;;;;;;11.61;100.00;101603.06;5050908;28;20100;-46
2023/05/06 01:54:40;;;;;;;;;;;;;;;11.59;100.00;101605.13;5052722;28;20514;-48
2023/05/06 01:57:05;;;;;;;83.57;33.70;;;;;;;11.54;100.00;101608.31;5050745;28;19916;-45
2023/05/06 01:59:32;;;;;;;86.75;35.55;;;;;;;11.53;100.00;101606.66;5052217;28;20543;-46
2023/05/06 02:01:57;;;;;;;88.72;35.35;;;;;;;11.52;100.00;101610.34;5052307;28;20057;-45
2023/05/06 02:04:22;;;;;;;82.32;35.50;;;;;;;11.50;100.00;101612.34;5052040;28;20164;-44
2023/05/06 02:06:48;;;;;;;89.03;35.75;;;;;;;11.48;100.00;101613.53;5052007;28;20031;-45
2023/05/06 02:09:13;;;;;;;93.65;37.75;;;;;;;11.44;100.00;101618.44;5050811;28;20379;-46
2023/05/06 02:11:38;;;;;;;91.60;39.20;;;;;;;11.42;100.00;101620.44;5051921;28;20032;-45
2023/05/06 02:14:04;;;;;;;93.97;40.50;;;;;;;11.40;100.00;101619.75;5052346;28;20025;-44
2023/05/06 02:16:29;;;;;;;91.22;39.50;;;;;;;11.38;100.00;101621.81;5051826;28;20025;-45
2023/05/06 02:18:55;;;;;;;87.53;38.53;;;;;;;11.36;100.00;101630.03;5034805;28;20661;-47
2023/05/06 02:21:22;;;;;;;96.05;38.88;;;;;;;11.35;100.00;101628.38;5052522;28;20459;-47
2023/05/06 02:23:47;;;;;;;89.50;38.08;;;;;;;11.32;100.00;101620.63;5052480;28;20147;-47
2023/05/06 02:26:12;;;;;;;89.80;38.08;;;;;;;11.30;100.00;101616.41;5052346;28;20135;-47
2023/05/06 02:28:38;;;;;;;84.35;37.47;;;;;;;11.30;100.00;101624.50;5051681;28;20399;-48
2023/05/06 02:31:03;;;;;;;89.47;36.45;;;;;;;11.30;100.00;101627.19;5051704;28;20039;-46
2023/05/06 02:33:28;;;;;;;96.88;40.17;;;;;;;11.30;100.00;101627.19;5050523;28;20025;-44
2023/05/06 02:35:54;;;;;;;83.32;34.95;;;;;;;11.26;100.00;101629.34;5033750;28;20094;-49
2023/05/06 02:38:20;;;;;;;89.40;36.88;;;;;;;11.26;100.00;101625.81;5050389;28;20079;-46
2023/05/06 02:40:45;;;;;;;84.38;35.85;;;;;;;11.25;100.00;101624.16;5049333;28;20027;-48
2023/05/06 02:43:11;;;;;;;80.57;35.20;;;;;;;11.25;100.00;101624.16;5051415;28;20017;-46
2023/05/06 02:45:36;;;;;;;87.78;37.03;;;;;;;11.24;100.00;101627.84;5051267;28;20064;-47
2023/05/06 02:48:01;;;;;;;90.22;35.58;;;;;;;11.23;100.00;101621.63;5050012;28;20041;-47
2023/05/06 02:50:27;;;;;;;90.28;37.47;;;;;;;11.23;100.00;101626.16;5051253;28;20026;-47
2023/05/06 02:52:52;;;;;;;91.57;35.67;;;;;;;11.21;100.00;101629.84;5051374;28;20063;-44
2023/05/06 02:55:18;;;;;;;87.07;35.30;;;;;;;11.22;100.00;101619.94;5033141;28;20040;-48
2023/05/06 02:57:43;;;;;;;89.38;36.92;;;;;;;11.25;100.00;101624.16;5050974;28;20509;-48
2023/05/06 03:00:10;;;;;;;82.32;35.25;;;;;;;11.26;100.00;101623.13;5049755;28;20025;-46
2023/05/06 03:02:35;;;;;;;81.15;36.10;;;;;;;11.32;100.00;101620.63;5049495;28;20475;-46
2023/05/06 03:05:03;;;;;;;85.13;36.25;;;;;;;11.35;100.00;101622.16;5049482;28;20068;-46
2023/05/06 03:07:29;;;;;;;84.70;35.78;;;;;;;11.39;100.00;101626.16;5050926;28;20074;-46
2023/05/06 03:09:54;;;;;;;79.30;34.55;;;;;;;11.38;100.00;101613.72;5050769;28;20463;-46
2023/05/06 03:12:20;;;;;;;81.88;34.17;;;;;;;11.41;100.00;101605.28;5049299;28;20196;-45
2023/05/06 03:14:45;;;;;;;80.38;34.08;;;;;;;11.41;100.00;101602.59;5050563;28;20074;-45
2023/05/06 03:17:10;;;;;;;79.38;35.00;;;;;;;11.40;100.00;101614.38;5050694;28;20025;-47
2023/05/06 03:19:36;;;;;;;82.97;33.72;;;;;;;11.33;100.00;101611.53;5050724;28;20037;-50
2023/05/06 03:22:01;;;;;;;80.60;34.33;;;;;;;11.26;100.00;101606.97;5049380;28;20052;-47
2023/05/06 03:24:26;;;;;;;80.53;33.08;;;;;;;11.19;100.00;101612.19;5049303;28;20052;-48
2023/05/06 03:26:52;;;;;;;80.07;34.60;;;;;;;11.14;100.00;101606.47;5032788;28;20425;-48
2023/05/06 03:29:17;;;;;;;79.05;34.85;;;;;;;11.11;100.00;101601.38;5048970;28;20032;-48
2023/05/06 03:31:42;;;;;;;82.88;34.47;;;;;;;11.06;100.00;101610.00;5049371;28;20040;-45
2023/05/06 03:34:08;;;;;;;75.88;33.63;;;;;;;11.09;100.00;101614.22;5049237;28;20137;-45
2023/05/06 03:36:33;;;;;;;74.35;33.22;;;;;;;11.07;100.00;101622.44;5049225;28;20040;-47
2023/05/06 03:38:58;;;;;;;80.32;34.03;;;;;;;11.06;100.00;101615.38;5048796;28;20046;-48
2023/05/06 03:41:24;;;;;;;73.72;33.33;;;;;;;11.02;100.00;101608.63;5032636;28;20120;-46
2023/05/06 03:43:50;;;;;;;73.38;32.72;;;;;;;11.02;100.00;101608.63;5049185;28;20052;-48
2023/05/06 03:46:15;;;;;;;78.60;34.03;;;;;;;11.03;100.00;101610.28;5050590;28;20104;-44
2023/05/06 03:48:40;;;;;;;78.90;34.28;;;;;;;11.05;100.00;101612.84;5048611;28;20032;-44
2023/05/06 03:51:06;;;;;;;82.32;34.78;;;;;;;11.08;100.00;101617.88;5049858;28;20104;-47
2023/05/06 03:53:31;;;;;;;72.70;31.25;;;;;;;11.05;100.00;101612.84;5048893;28;20028;-48
2023/05/06 03:55:56;;;;;;;83.40;34.45;;;;;;;11.04;100.00;101622.78;5048978;28;20053;-45
2023/05/06 03:58:22;;;;;;;82.95;33.22;;;;;;;11.03;100.00;101621.06;5050347;28;20021;-50
2023/05/06 04:00:47;;;;;;;73.13;31.63;;;;;;;11.01;100.00;101623.13;5050138;28;20029;-47
2023/05/06 04:03:13;;;;;;;82.45;34.05;;;;;;;11.00;100.00;101621.41;5049522;28;20424;-46
2023/05/06 04:05:38;;;;;;;78.25;32.30;;;;;;;10.98;100.00;101621.59;5049637;28;20033;-46
2023/05/06 04:08:03;;;;;;;71.85;32.40;;;;;;;11.02;100.00;101621.25;5049912;28;20056;-46
2023/05/06 04:10:29;;;;;;;77.10;33.05;;;;;;;11.01;100.00;101612.34;5049331;28;20028;-46
2023/05/06 04:12:56;;;;;;;72.88;32.47;;;;;;;10.99;100.00;101625.97;5033672;28;20029;-46
2023/05/06 04:15:22;;;;;;;72.57;31.75;;;;;;;10.99;100.00;101615.19;5054211;28;20025;-48
2023/05/06 04:17:48;;;;;;;77.68;31.05;;;;;;;10.99;100.00;101617.03;5053468;28;20426;-45
2023/05/06 04:20:15;;;;;;;68.75;30.58;;;;;;;10.95;100.00;101623.75;5054302;28;20107;-46
2023/05/06 04:22:40;;;;;;;70.20;30.92;;;;;;;10.96;100.00;101620.06;5054545;28;20143;-46
2023/05/06 04:25:07;;;;;;;73.03;31.73;;;;;;;10.96;100.00;101620.06;5053906;28;20138;-48
2023/05/06 04:27:33;;;;;;;73.93;32.35;;;;;;;10.99;100.00;101617.03;5054163;28;20425;-48
2023/05/06 04:29:59;;;;;;;69.30;30.83;;;;;;;11.03;100.00;101625.63;5053055;28;20048;-46
2023/05/06 04:32:24;;;;;;;76.03;32.17;;;;;;;11.04;100.00;101628.16;5053794;28;20117;-45
2023/05/06 04:34:53;;;;;;;67.63;30.55;;;;;;;11.05;100.00;101627.16;5052238;28;20493;-46
2023/05/06 04:37:18;;;;;;;67.80;29.60;;;;;;;11.07;100.00;101627.00;5053763;28;20056;-47
2023/05/06 04:39:47;;;;;;;74.55;30.67;;;;;;;11.10;100.00;101624.78;5051958;28;20453;-48
2023/05/06 04:42:13;;;;;;;72.20;31.52;;;;;;;11.17;100.00;101625.00;5052417;28;20028;-46
2023/05/06 04:44:40;;;;;;;71.57;29.75;;;;;;;11.17;100.00;101625.00;5053019;28;20025;-44
2023/05/06 04:47:05;;;;;;;73.53;31.80;;;;;;;11.15;100.00;101633.22;5052816;28;20108;-44
2023/05/06 04:49:31;;;;;;;72.20;31.02;;;;;;;11.14;100.00;101628.84;5052264;28;20107;-45
2023/05/06 04:51:56;;;;;;;78.40;33.83;;;;;;;11.15;100.00;101630.53;5054050;28;20044;-43
2023/05/06 04:54:22;;;;;;;76.80;31.48;;;;;;;11.17;100.00;101633.06;5053933;28;20029;-46
2023/05/06 04:56:47;;;;;;;76.55;33.10;;;;;;;11.20;100.00;101632.72;5052154;28;20049;-46
2023/05/06 04:59:14;;;;;;;74.32;32.97;;;;;;;11.23;100.00;101636.94;5052002;28;20060;-46
2023/05/06 05:01:39;;;;;;;72.35;33.28;;;;;;;11.23;100.00;101636.94;5053183;28;20021;-46
2023/05/06 05:04:04;;;;;;;66.10;31.27;;;;;;;11.26;100.00;101647.38;5051873;28;20067;-46
2023/05/06 05:06:30;;;;;;;82.25;32.28;;;;;;;11.29;100.00;101647.88;5053321;28;20520;-46
2023/05/06 05:08:57;;;;;;;68.97;29.67;;;;;;;11.33;100.00;101643.03;5053189;28;20033;-49
2023/05/06 05:11:22;;;;;;;73.57;31.92;;;;;;;11.39;100.00;101648.56;5052221;28;20095;-43
2023/05/06 05:13:48;;;;;;;75.30;32.25;;;;;;;11.45;100.00;101646.22;5053056;28;20467;-46
2023/05/06 05:16:14;;;;;;;77.25;33.03;;;;;;;11.52;100.00;101648.06;5035034;28;20044;-44
2023/05/06 05:18:39;;;;;;;69.38;32.50;;;;;;;11.58;100.00;101646.56;5052711;28;20450;-48
2023/05/06 05:21:05;;;;;;;76.20;32.38;;;;;;;11.71;100.00;101643.34;5051359;28;20143;-46
2023/05/06 05:23:30;;;;;;;81.20;32.97;;;;;;;11.86;100.00;101652.47;5052903;28;20044;-45
2023/05/06 05:25:55;;;;;;;68.68;32.97;;;;;;;12.02;100.00;101657.84;5052489;28;20391;-46
2023/05/06 05:28:21;;;;;;;72.88;32.63;;;;;;;12.27;100.00;101657.81;5052316;28;20029;-46
2023/05/06 05:30:46;;;;;;;82.97;34.42;;;;;;;12.60;100.00;101654.97;5052326;28;20036;-45
2023/05/06 05:33:11;;;;;;;74.55;34.67;;;;;;;12.89;100.00;101654.31;5052665;28;20442;-46
2023/05/06 05:35:38;;;;;;;75.93;34.28;;;;;;;13.05;100.00;101665.03;5051170;28;20039;-47
2023/05/06 05:38:03;;;;;;;75.47;34.50;;;;;;;13.13;100.00;101658.72;5051322;28;20025;-45
2023/05/06 05:40:28;;;;;;;71.53;32.80;;;;;;;13.32;100.00;101655.59;5052406;28;20430;-49
2023/05/06 05:42:54;;;;;;;72.40;32.10;;;;;;;13.46;100.00;101647.72;5052476;28;20037;-47
2023/05/06 05:45:20;;;;;;;64.25;32.13;;;;;;;13.66;100.00;101635.38;5052144;28;20104;-47
2023/05/06 05:47:45;;;;;;;70.53;33.28;;;;;;;13.87;100.00;101636.53;5052407;28;20471;-45
2023/05/06 05:50:12;;;;;;;79.07;33.75;;;;;;;13.98;100.00;101630.66;5052437;28;20106;-46
2023/05/06 05:52:37;;;;;;;77.20;32.92;;;;;;;14.09;100.00;101634.81;5052066;28;20025;-47
2023/05/06 05:55:03;;;;;;;69.50;32.60;;;;;;;14.16;100.00;101623.03;5051175;28;20044;-47
2023/05/06 05:57:28;;;;;;;78.40;33.25;;;;;;;14.49;100.00;101622.66;5050625;28;20053;-46
2023/05/06 05:59:53;;;;;;;66.85;33.67;;;;;;;14.93;100.00;101621.75;5051964;28;20065;-45
2023/05/06 06:02:19;;;;;;;72.22;33.45;;;;;;;15.49;100.00;101627.31;5052091;28;20336;-46
2023/05/06 06:04:44;;;;;;;64.13;32.03;;;;;;;16.46;100.00;101612.94;5052697;28;20112;-45
2023/05/06 06:07:10;;;;;;;68.20;31.85;;;;;;;17.16;100.00;101599.16;5052109;28;20029;-46
2023/05/06 06:09:35;;;;;;;67.10;31.42;;;;;;;17.97;100.00;101579.06;5051744;28;20013;-45
2023/05/06 06:12:01;;;;;;;66.60;30.60;;;;;;;18.34;100.00;101565.75;5052053;28;20495;-46
2023/05/06 06:14:26;;;;;;;64.78;31.10;;;;;;;18.45;100.00;101556.88;5052021;28;20029;-46
2023/05/06 06:16:51;;;;;;;58.42;29.75;;;;;;;18.88;100.00;101559.00;5050457;28;20029;-49
2023/05/06 06:19:17;;;;;;;58.75;29.70;;;;;;;19.17;100.00;101556.69;5050544;28;20047;-47
2023/05/06 06:21:42;;;;;;;60.70;30.88;;;;;;;19.47;100.00;101568.63;5033883;28;20075;-47
2023/05/06 06:24:08;;;;;;;56.40;30.23;;;;;;;19.17;100.00;101567.59;5051730;28;20029;-45
2023/05/06 06:26:35;;;;;;;64.38;31.63;;;;;;;18.77;100.00;101567.88;5051918;28;20024;-47
2023/05/06 06:29:00;;;;;;;70.07;33.22;;;;;;;18.46;100.00;101569.47;5051465;28;20021;-44
2023/05/06 06:31:28;;;;;;;66.13;33.90;;;;;;;18.52;100.00;101568.59;5052079;28;20025;-46
2023/05/06 06:33:54;;;;;;;61.30;33.35;;;;;;;18.88;100.00;101572.66;5051630;28;20028;-46
2023/05/06 06:36:20;;;;;;;61.88;30.27;;;;;;;19.77;100.00;101573.41;5050129;28;20033;-46
2023/05/06 06:38:45;;;;;;;68.57;32.17;;;;;;;20.14;100.00;101573.44;5050828;28;20387;-46
2023/05/06 06:41:10;;;;;;;58.60;29.40;;;;;;;20.78;100.00;101580.25;5049908;28;20090;-44
2023/05/06 06:43:36;;;;;;;64.75;32.53;;;;;;;21.58;100.00;101573.53;5050132;28;20108;-47
2023/05/06 06:46:01;;;;;;;58.95;31.40;;;;;;;21.34;100.00;101577.28;5051243;28;20112;-46
2023/05/06 06:48:26;;;;;;;67.47;32.80;;;;;;;21.65;100.00;101573.44;5049601;28;20047;-49
2023/05/06 06:50:52;;;;;;;67.43;32.92;;;;;;;21.94;100.00;101574.38;5050058;28;20494;-47
2023/05/06 06:53:17;;;;;;;62.10;28.23;;;;;;;22.69;100.00;101576.22;5050692;28;20104;-45
2023/05/06 06:55:45;;;;;;;58.22;30.85;;;;;;;22.89;100.00;101583.19;5050459;28;20495;-44
2023/05/06 06:58:10;;;;;;;52.75;25.45;;;;;;;23.55;95.83;101586.25;5051070;28;20028;-46
2023/05/06 07:00:35;;;;;;;54.90;26.23;;;;;;;23.88;92.96;101586.25;5050998;28;20033;-47
2023/05/06 07:03:01;;;;;;;52.03;26.92;;;;;;;23.07;95.01;101590.41;5051234;28;20116;-45
2023/05/06 07:05:26;;;;;;;49.72;25.75;;;;;;;23.27;91.92;101587.16;5051236;28;20060;-45
2023/05/06 07:07:52;;;;;;;54.03;26.70;;;;;;;23.43;93.71;101591.84;5050820;28;20690;-48
2023/05/06 07:10:17;;;;;;;48.35;25.90;;;;;;;23.61;92.12;101596.25;5049970;28;20139;-45
2023/05/06 07:12:43;;;;;;;44.08;20.05;;;;;;;23.78;91.20;101602.59;5051079;28;20320;-46
2023/05/06 07:15:08;;;;;;;48.22;20.98;;;;;;;23.44;89.05;101597.09;5049805;28;20035;-45
2023/05/06 07:17:34;;;;;;;46.35;22.13;;;;;;;23.39;90.55;101596.19;5049642;28;20119;-46
2023/05/06 07:19:59;;;;;;;42.38;20.80;;;;;;;23.39;89.42;101588.75;5050749;28;20021;-46
2023/05/06 07:22:25;;;;;;;40.83;19.02;;;;;;;23.56;91.12;101596.16;5049259;28;20028;-49
2023/05/06 07:24:51;;;;;;;39.22;19.45;;;;;;;23.94;87.03;101591.84;5049417;28;20383;-45
2023/05/06 07:27:16;;;;;;;38.97;16.95;;;;;;;23.95;87.57;101597.06;5049211;28;20033;-46
2023/05/06 07:29:42;;;;;;;33.05;16.98;;;;;;;23.76;88.25;101590.19;5049375;28;20486;-46
2023/05/06 07:32:07;;;;;;;30.48;14.60;;;;;;;23.21;87.23;101591.75;5049724;28;20032;-46
2023/05/06 07:34:33;;;;;;;24.83;11.82;;;;;;;23.40;88.32;101590.41;5051226;28;20079;-44
2023/05/06 07:36:59;;;;;;;26.80;12.55;;;;;;;22.84;90.61;101585.84;5052354;28;20035;-46
2023/05/06 07:39:25;;;;;;;24.90;10.05;;;;;;;22.95;87.77;101594.00;5034409;28;20471;-46
2023/05/06 07:41:51;;;;;;;11.80;3.85;;;;;;;23.17;81.27;101590.56;5053565;28;20131;-45
2023/05/06 07:44:16;;;;;;;20.95;8.05;;;;;;;23.22;83.14;101585.16;5052110;28;20475;-47
2023/05/06 07:46:42;;;;;;;20.98;7.38;;;;;;;23.41;86.25;101594.03;5053356;28;20033;-46
2023/05/06 07:49:07;;;;;;;25.52;11.23;;;;;;;22.46;89.75;101585.38;5054510;28;20029;-45
2023/05/06 07:51:32;;;;;;;26.00;11.15;;;;;;;22.61;85.92;101584.00;5055624;28;20468;-45
2023/05/06 07:53:58;;;;;;;30.92;11.10;;;;;;;22.43;89.77;101591.34;5054692;28;20108;-47
2023/05/06 07:56:23;;;;;;;23.50;8.40;;;;;;;22.49;84.09;101582.16;5054803;28;20501;-46
2023/05/06 07:58:48;;;;;;;24.00;6.40;;;;;;;21.75;84.21;101592.00;5053943;28;20064;-48
2023/05/06 08:01:15;;;;;;;26.50;8.45;;;;;;;21.13;89.27;101585.00;5052418;28;20064;-47
2023/05/06 08:03:40;;;;;;;21.80;6.95;;;;;;;21.67;88.99;101582.25;5054598;28;20025;-45
2023/05/06 08:06:06;;;;;;;19.50;4.88;;;;;;;21.90;85.33;101590.44;5054439;28;20025;-48
2023/05/06 08:08:31;;;;;;;18.02;4.25;;;;;;;23.25;82.96;101598.41;5052712;28;20087;-47
2023/05/06 08:10:57;;;;;;;17.33;5.00;;;;;;;23.06;81.48;101599.72;5054302;28;20047;-46
2023/05/06 08:13:23;;;;;;;18.48;4.80;;;;;;;22.94;78.97;101599.75;5054018;28;20107;-45
2023/05/06 08:15:49;;;;;;;22.77;4.72;;;;;;;23.11;79.93;101602.53;5052956;28;20036;-46
2023/05/06 08:18:14;;;;;;;18.55;6.93;;;;;;;22.33;81.91;101602.13;5054050;28;20026;-47
2023/05/06 08:20:40;;;;;;;31.25;9.88;;;;;;;21.62;87.23;101595.81;5053879;28;20074;-48
2023/05/06 08:23:06;;;;;;;29.83;12.52;;;;;;;20.87;92.60;101599.06;5054007;28;20067;-48
2023/05/06 08:25:31;;;;;;;31.00;10.70;;;;;;;20.44;95.36;101594.56;5054395;28;20108;-48
2023/05/06 08:27:57;;;;;;;20.40;10.82;;;;;;;20.37;98.13;101590.00;5053815;28;20330;-43
2023/05/06 08:30:23;;;;;;;25.95;10.43;;;;;;;20.20;100.00;101593.59;5053792;28;20048;-47
2023/05/06 08:32:48;;;;;;;27.90;9.88;;;;;;;20.01;100.00;101590.84;5052294;28;20382;-46
2023/05/06 08:35:13;;;;;;;25.23;9.18;;;;;;;20.80;100.00;101594.53;5053708;28;20025;-46
2023/05/06 08:37:42;;;;;;;22.23;8.38;;;;;;;21.64;96.58;101600.00;5053965;28;20355;-46
2023/05/06 08:40:26;;;;;;;15.45;5.80;;;;;;;22.17;88.82;101600.06;5053392;28;20039;-46
2023/05/06 08:42:54;;;;;;;17.60;4.63;;;;;;;22.97;83.67;101611.09;5052669;28;20432;-46
2023/05/06 08:45:20;;;;;;;17.85;4.35;;;;;;;22.24;85.91;101609.03;5051860;28;20099;-46
2023/05/06 08:47:47;;;;;;;23.80;5.20;;;;;;;22.98;84.94;101604.50;5053449;28;20021;-46
2023/05/06 08:50:12;;;;;;;17.08;5.20;;;;;;;24.18;80.85;101609.75;5052685;28;20059;-47
2023/05/06 08:52:38;;;;;;;18.58;5.75;;;;;;;24.68;76.26;101605.19;5051741;28;20457;-46
2023/05/06 08:55:05;;;;;;;17.20;5.40;;;;;;;24.25;75.77;101604.91;5052003;28;20032;-49
2023/05/06 08:57:31;;;;;;;17.80;4.47;;;;;;;24.05;77.46;101604.63;5051802;28;20451;-45
2023/05/06 08:59:57;;;;;;;18.17;4.83;;;;;;;24.06;74.54;101604.38;5052638;28;20475;-48
2023/05/06 09:02:23;;;;;;;18.23;5.28;;;;;;;23.33;76.66;101600.75;5052339;28;20397;-46
2023/05/06 09:04:48;;;;;;;20.67;5.30;;;;;;;23.91;74.54;101600.56;5053182;28;20502;-45
2023/05/06 09:07:14;;;;;;;23.50;9.85;;;;;;;24.70;75.30;101597.50;5052179;28;20028;-50
2023/05/06 09:09:39;;;;;;;26.70;9.63;;;;;;;24.30;75.61;101593.13;5053623;28;20348;-44
2023/05/06 09:12:12;;;;;;;21.15;7.57;;;;;;;24.41;76.39;101600.44;5053007;28;20091;-44
2023/05/06 09:14:38;;;;;;;19.75;7.35;;;;;;;24.69;75.88;101596.66;5052322;28;20542;-47
2023/05/06 09:17:03;;;;;;;26.38;9.65;;;;;;;24.43;76.67;101600.16;5052068;28;20112;-45
2023/05/06 09:19:28;;;;;;;27.38;9.07;;;;;;;24.76;77.08;101593.72;5051872;28;20052;-46
2023/05/06 09:21:54;;;;;;;23.73;9.88;;;;;;;24.58;74.57;101596.81;5053045;28;20489;-45
2023/05/06 09:24:19;;;;;;;22.60;9.85;;;;;;;25.77;72.52;101594.88;5051334;28;20048;-48
2023/05/06 09:26:45;;;;;;;23.27;10.20;;;;;;;25.02;74.25;101578.28;5051679;28;20029;-44
2023/05/06 09:29:11;;;;;;;20.13;9.32;;;;;;;23.96;76.59;101595.13;5052745;28;20041;-45
2023/05/06 09:31:42;;;;;;;23.27;9.43;;;;;;;23.18;79.15;101587.59;5035053;28;20047;-47
2023/05/06 09:34:08;;;;;;;22.38;9.23;;;;;;;22.74;81.76;101589.22;5052379;28;20029;-48
2023/05/06 09:36:34;;;;;;;23.83;9.97;;;;;;;23.25;81.15;101587.44;5051678;28;20039;-45
2023/05/06 09:39:00;;;;;;;15.73;7.47;;;;;;;23.28;81.49;101581.44;5052257;28;20029;-45
2023/05/06 09:41:25;;;;;;;19.90;7.40;;;;;;;23.11;81.60;101580.59;5052258;28;20108;-46
2023/05/06 09:43:55;;;;;;;20.17;9.00;;;;;;;23.29;79.31;101588.59;5051067;28;20112;-47
2023/05/06 09:46:21;;;;;;;20.92;7.22;;;;;;;22.74;81.71;101575.50;5052290;28;20440;-44
2023/05/06 09:48:49;;;;;;;16.90;7.30;;;;;;;23.05;81.25;101581.59;5052087;28;20021;-45
2023/05/06 09:51:14;;;;;;;17.58;6.47;;;;;;;23.11;83.47;101569.59;5052530;28;20021;-45
2023/05/06 09:53:43;;;;;;;20.63;7.60;;;;;;;22.86;81.94;101579.03;5051158;28;20167;-48
2023/05/06 09:56:08;;;;;;;22.52;7.22;;;;;;;22.46;81.59;101573.56;5050297;28;20068;-47
2023/05/06 09:58:35;;;;;;;15.27;5.97;;;;;;;22.78;83.66;101571.19;5052336;28;20124;-44
2023/05/06 10:01:02;;;;;;;16.30;6.28;;;;;;;22.44;83.78;101578.47;5050667;28;20434;-47
2023/05/06 10:03:28;;;;;;;20.95;6.28;;;;;;;21.49;88.10;101564.03;5051910;28;20374;-48
2023/05/06 10:05:59;;;;;;;22.95;7.38;;;;;;;21.82;86.47;101573.53;5051725;28;20018;-45
2023/05/06 10:08:25;;;;;;;20.95;6.90;;;;;;;20.92;89.87;101569.94;5050041;28;20394;-48
2023/05/06 10:10:50;;;;;;;17.70;6.70;;;;;;;21.12;92.67;101558.69;5050666;28;20042;-46
2023/05/06 10:13:16;;;;;;;19.80;6.63;;;;;;;21.85;89.94;101570.31;5050792;28;20406;-45
2023/05/06 10:15:45;;;;;;;19.83;7.15;;;;;;;21.82;90.04;101557.09;5050435;28;20037;-45
2023/05/06 10:18:12;;;;;;;15.27;7.10;;;;;;;21.83;89.72;101558.78;5051789;28;20570;-45
2023/05/06 10:20:39;;;;;;;17.10;6.57;;;;;;;22.23;91.02;101563.50;5050385;28;20059;-48
2023/05/06 10:23:09;;;;;;;18.25;7.38;;;;;;;22.62;89.24;101563.72;5050349;28;20075;-47
2023/05/06 10:25:39;;;;;;;17.80;7.50;;;;;;;23.29;84.24;101561.13;5051904;28;20037;-46
2023/05/06 10:28:09;;;;;;;16.02;7.57;;;;;;;22.68;86.20;101557.28;5051955;28;20067;-45
2023/05/06 10:30:36;;;;;;;20.75;7.35;;;;;;;22.75;84.62;101555.22;5051783;28;20048;-48
2023/05/06 10:33:06;;;;;;;18.48;7.40;;;;;;;22.29;85.49;101557.88;5051867;28;20386;-45
2023/05/06 10:35:37;;;;;;;18.92;7.90;;;;;;;21.74;88.75;101557.47;5051292;28;20028;-46
2023/05/06 10:38:04;;;;;;;20.92;8.18;;;;;;;21.36;91.07;101542.31;5050201;28;20044;-48
2023/05/06 10:40:30;;;;;;;20.30;7.40;;;;;;;21.45;90.54;101551.84;5033026;28;20479;-44
2023/05/06 10:43:21;;;;;;;21.08;8.02;;;;;;;21.39;91.31;101544.59;5051196;28;20079;-46
2023/05/06 10:46:10;;;;;;;23.45;7.38;;;;;;;21.68;91.90;101548.28;5050826;28;20489;-48
2023/05/06 10:48:59;;;;;;;14.40;7.55;;;;;;;22.10;89.26;101543.47;5049605;28;20036;-46
2023/05/06 10:51:27;;;;;;;16.65;7.90;;;;;;;22.61;86.90;101543.69;5050843;28;20115;-48
2023/05/06 10:54:03;;;;;;;16.88;5.68;;;;;;;22.78;82.87;101541.00;5050874;28;20037;-48
2023/05/06 10:56:33;;;;;;;13.90;5.03;;;;;;;22.61;78.27;101532.72;5051713;28;20047;-46
2023/05/06 10:59:25;;;;;;;10.35;4.13;;;;;;;22.80;77.10;101530.59;5053547;28;20051;-45
2023/05/06 11:02:07;;;;;;;10.80;4.40;;;;;;;23.07;75.12;101541.00;5050182;28;20040;-46
2023/05/06 11:04:32;;;;;;;13.13;5.20;;;;;;;22.75;78.02;101533.25;5050076;28;20033;-47